Aurora Australis — VNAA — position and weather

sailwx.info

Track history (hours):
 
Tides and Currents Weather Stations Pressure Air Temp Water Temp Dewpoint Dewpoint Depression Visibility Wind Speed Wind Dir Waves Ship Positions

Oceanographic research ship Aurora Australis (Australia)

Detailed information on ship capabilities available from University of Delaware's Ocean Information Center.

Last reported at 2015-Jun-26 03:33 UTC. Time now 2015-Jul-05 07:48 UTC.
Position N 01°14' E 104°01'.
Warning: this ship's position is 9 days out of date.

Length 94.9 m; beam 20.3 m; draft 7.9 m.

Type: Ship. MMSI: 503043000.

Date/timePositionNaut miles runAvg speedWind from/ knotsBaromVisibWave heightAir tempDewpointWater temp
2015-Jun-26 03:33N 01°14' E 104°01'1110.3
2015-Jun-26 02:30N 01°12' E 103°50'2 1.7
2015-Jun-26 01:32N 01°13' E 103°51'4 4.4
2015-Jun-26 00:32N 01°17' E 103°53'0 0.0
2015-Jun-25 23:29N 01°17' E 103°53'0 0.0
2015-Jun-25 22:32N 01°17' E 103°53'0 0.0
2015-Jun-25 21:32N 01°17' E 103°53'0 0.0
2015-Jun-25 20:32N 01°17' E 103°53'0 0.0
2015-Jun-25 19:23N 01°17' E 103°53'0 0.0
2015-Jun-25 18:32N 01°17' E 103°53'0 0.0
2015-Jun-25 16:26N 01°17' E 103°53'0 0.0
2015-Jun-25 15:26N 01°17' E 103°53'0 0.0
2015-Jun-25 14:29N 01°17' E 103°53'0 0.0
2015-Jun-25 13:32N 01°17' E 103°53'0 0.0
2015-Jun-25 12:26N 01°17' E 103°53'0 0.0
2015-Jun-25 11:32N 01°17' E 103°53'0 0.0
2015-Jun-25 10:20N 01°17' E 103°53'0 0.0
2015-Jun-25 09:32N 01°17' E 103°53'0 0.1
2015-Jun-25 08:14N 01°16' E 103°54'0 0.1
2015-Jun-25 07:20N 01°17' E 103°53'0 0.0
2015-Jun-25 06:32N 01°16' E 103°53'0 0.0
2015-Jun-25 05:32N 01°16' E 103°53'0 0.1
2015-Jun-25 04:32N 01°17' E 103°53'0 0.0
2015-Jun-25 03:14N 01°17' E 103°53'0 0.0
2015-Jun-25 02:32N 01°17' E 103°53'0 0.0
2015-Jun-25 01:26N 01°17' E 103°53'0 0.0
2015-Jun-25 00:20N 01°17' E 103°53'0 0.0
2015-Jun-24 23:11N 01°17' E 103°53'0 0.0
2015-Jun-24 22:26N 01°17' E 103°53'0 0.0
2015-Jun-24 21:26N 01°17' E 103°53'0 0.0
2015-Jun-24 20:32N 01°17' E 103°53'0 0.0
2015-Jun-24 19:23N 01°17' E 103°53'0 0.0
2015-Jun-24 18:32N 01°17' E 103°53'0 0.0
2015-Jun-24 17:20N 01°17' E 103°53'0 0.0
2015-Jun-24 16:14N 01°17' E 103°53'0 0.0
2015-Jun-24 15:32N 01°17' E 103°53'0 0.0
2015-Jun-24 14:20N 01°17' E 103°53'0 0.0
2015-Jun-24 13:32N 01°17' E 103°53'0 0.0
2015-Jun-24 11:32N 01°17' E 103°53'0 0.0
2015-Jun-24 10:32N 01°17' E 103°53'0 0.0
2015-Jun-24 09:11N 01°17' E 103°53'0 0.0
2015-Jun-24 08:32N 01°17' E 103°53'0 0.0
2015-Jun-24 07:29N 01°17' E 103°53'0 0.0
2015-Jun-24 06:23N 01°17' E 103°53'0 0.0
2015-Jun-24 05:29N 01°17' E 103°53'0 0.0
2015-Jun-24 04:33N 01°17' E 103°53'1 1.3
2015-Jun-24 03:33N 01°16' E 103°55'9 8.8
2015-Jun-24 02:33N 01°17' E 104°04'9 6.4
2015-Jun-24 01:08N 01°24' E 103°57'  
Track history (hours):
 
Tides and Currents Weather Stations Pressure Air Temp Water Temp Dewpoint Dewpoint Depression Visibility Wind Speed Wind Dir Waves Ship Positions

Oceanographic research ship Aurora Australis (Australia)

Detailed information on ship capabilities available from University of Delaware's Ocean Information Center.

Last reported at 2015-Jun-26 03:33 UTC. Time now 2015-Jul-05 07:48 UTC.
Position N 01°14' E 104°01'.
Warning: this ship's position is 9 days out of date.

Length 94.9 m; beam 20.3 m; draft 7.9 m.

Type: Ship. MMSI: 503043000.

Date/timePositionNaut miles runAvg speedWind from/ knotsBaromVisibWave heightAir tempDewpointWater temp
2015-Jun-26 03:33N 01°14' E 104°01'1110.3
2015-Jun-26 02:30N 01°12' E 103°50'2 1.7
2015-Jun-26 01:32N 01°13' E 103°51'4 4.4
2015-Jun-26 00:32N 01°17' E 103°53'0 0.0
2015-Jun-25 23:29N 01°17' E 103°53'0 0.0
2015-Jun-25 22:32N 01°17' E 103°53'0 0.0
2015-Jun-25 21:32N 01°17' E 103°53'0 0.0
2015-Jun-25 20:32N 01°17' E 103°53'0 0.0
2015-Jun-25 19:23N 01°17' E 103°53'0 0.0
2015-Jun-25 18:32N 01°17' E 103°53'0 0.0
2015-Jun-25 16:26N 01°17' E 103°53'0 0.0
2015-Jun-25 15:26N 01°17' E 103°53'0 0.0
2015-Jun-25 14:29N 01°17' E 103°53'0 0.0
2015-Jun-25 13:32N 01°17' E 103°53'0 0.0
2015-Jun-25 12:26N 01°17' E 103°53'0 0.0
2015-Jun-25 11:32N 01°17' E 103°53'0 0.0
2015-Jun-25 10:20N 01°17' E 103°53'0 0.0
2015-Jun-25 09:32N 01°17' E 103°53'0 0.1
2015-Jun-25 08:14N 01°16' E 103°54'0 0.1
2015-Jun-25 07:20N 01°17' E 103°53'0 0.0
2015-Jun-25 06:32N 01°16' E 103°53'0 0.0
2015-Jun-25 05:32N 01°16' E 103°53'0 0.1
2015-Jun-25 04:32N 01°17' E 103°53'0 0.0
2015-Jun-25 03:14N 01°17' E 103°53'0 0.0
2015-Jun-25 02:32N 01°17' E 103°53'0 0.0
2015-Jun-25 01:26N 01°17' E 103°53'0 0.0
2015-Jun-25 00:20N 01°17' E 103°53'0 0.0
2015-Jun-24 23:11N 01°17' E 103°53'0 0.0
2015-Jun-24 22:26N 01°17' E 103°53'0 0.0
2015-Jun-24 21:26N 01°17' E 103°53'0 0.0
2015-Jun-24 20:32N 01°17' E 103°53'0 0.0
2015-Jun-24 19:23N 01°17' E 103°53'0 0.0
2015-Jun-24 18:32N 01°17' E 103°53'0 0.0
2015-Jun-24 17:20N 01°17' E 103°53'0 0.0
2015-Jun-24 16:14N 01°17' E 103°53'0 0.0
2015-Jun-24 15:32N 01°17' E 103°53'0 0.0
2015-Jun-24 14:20N 01°17' E 103°53'0 0.0
2015-Jun-24 13:32N 01°17' E 103°53'0 0.0
2015-Jun-24 11:32N 01°17' E 103°53'0 0.0
2015-Jun-24 10:32N 01°17' E 103°53'0 0.0
2015-Jun-24 09:11N 01°17' E 103°53'0 0.0
2015-Jun-24 08:32N 01°17' E 103°53'0 0.0
2015-Jun-24 07:29N 01°17' E 103°53'0 0.0
2015-Jun-24 06:23N 01°17' E 103°53'0 0.0
2015-Jun-24 05:29N 01°17' E 103°53'0 0.0
2015-Jun-24 04:33N 01°17' E 103°53'1 1.3
2015-Jun-24 03:33N 01°16' E 103°55'9 8.8
2015-Jun-24 02:33N 01°17' E 104°04'9 6.4
2015-Jun-24 01:08N 01°24' E 103°57'  

Dump ship's entire track history